Time;durP1;ratioP1;P1;durP2;ratioP2;P2;SDS_P1;SDS_P2;PMS_P1;PMS_P2;Temp;Humidity;BMP_temperature;BMP_pressure;BME280_temperature;BME280_humidity;BME280_pressure;Samples;Min_cycle;Max_cycle;Signal;HPM_P1;HPM_P2
2021/03/29 00:00:47;;;;;;;64.68;26.50;;;;;;;4.05;54.58;99833.53;5093133;28;20038;-81
2021/03/29 00:03:13;;;;;;;67.30;26.92;;;;;;;4.04;54.57;99838.13;5093424;28;20059;-80
2021/03/29 00:05:39;;;;;;;65.35;25.75;;;;;;;4.01;54.57;99844.81;5093343;28;20032;-80
2021/03/29 00:08:11;;;;;;;64.38;28.15;;;;;;;4.00;55.01;99845.03;5093861;28;20028;-80
2021/03/29 00:10:39;;;;;;;63.55;26.08;;;;;;;3.98;55.20;99847.13;5093482;28;20028;-80
2021/03/29 00:13:05;;;;;;;60.67;24.77;;;;;;;3.94;54.98;99844.03;5092939;28;20035;-81
2021/03/29 00:15:36;;;;;;;54.40;22.98;;;;;;;3.92;54.92;99853.44;5093940;28;20126;-81
2021/03/29 00:18:04;;;;;;;62.45;24.70;;;;;;;3.90;54.99;99848.22;5093638;28;20031;-81
2021/03/29 00:20:31;;;;;;;46.70;20.98;;;;;;;3.89;55.25;99846.56;5093652;28;20028;-81
2021/03/29 00:22:58;;;;;;;48.22;21.77;;;;;;;3.89;56.06;99841.13;5092393;28;20063;-81
2021/03/29 00:25:24;;;;;;;45.95;21.42;;;;;;;3.90;55.91;99841.94;5093529;28;20497;-81
2021/03/29 00:27:50;;;;;;;47.00;18.85;;;;;;;3.93;56.22;99838.81;5093092;28;20039;-81
2021/03/29 00:30:19;;;;;;;56.58;22.75;;;;;;;3.95;55.98;99839.41;5093405;28;20032;-81
2021/03/29 00:32:46;;;;;;;45.30;20.60;;;;;;;3.98;55.75;99844.41;5092965;28;20058;-81
2021/03/29 00:35:14;;;;;;;47.58;20.50;;;;;;;3.99;55.35;99849.63;5092976;28;20036;-81
2021/03/29 00:37:42;;;;;;;46.95;20.20;;;;;;;3.99;55.96;99851.50;5092369;28;20070;-80
2021/03/29 00:40:10;;;;;;;47.35;20.67;;;;;;;4.00;55.47;99848.59;5093524;28;20347;-81
2021/03/29 00:42:36;;;;;;;44.28;20.88;;;;;;;4.03;55.67;99855.44;5089505;28;20027;-81
2021/03/29 00:45:05;;;;;;;47.60;19.75;;;;;;;4.04;56.07;99854.41;5093130;28;20537;-81
2021/03/29 00:47:31;;;;;;;44.53;19.83;;;;;;;4.06;55.37;99846.88;5092697;28;20032;-81
2021/03/29 00:49:57;;;;;;;47.00;21.02;;;;;;;4.09;55.83;99861.88;5092791;28;20024;-81
2021/03/29 00:52:24;;;;;;;44.78;19.90;;;;;;;4.09;56.36;99860.00;5092510;28;20058;-82
2021/03/29 00:54:50;;;;;;;46.47;21.08;;;;;;;4.11;56.44;99860.63;5089247;28;20052;-82
2021/03/29 00:57:17;;;;;;;50.45;20.15;;;;;;;4.15;55.88;99850.16;5092781;28;20027;-82
2021/03/29 00:59:43;;;;;;;39.78;19.13;;;;;;;4.16;55.98;99854.53;5092408;28;20039;-81
2021/03/29 01:02:08;;;;;;;41.72;18.58;;;;;;;4.19;56.44;99853.28;5089549;28;20024;-81
2021/03/29 01:04:34;;;;;;;41.35;18.52;;;;;;;4.20;55.75;99861.19;5092283;28;20445;-81
2021/03/29 01:07:00;;;;;;;42.30;18.80;;;;;;;4.21;56.06;99854.69;5091350;28;20056;-81
2021/03/29 01:09:27;;;;;;;39.88;17.55;;;;;;;4.20;56.42;99855.75;5092246;28;20024;-81
2021/03/29 01:11:55;;;;;;;41.17;18.75;;;;;;;4.22;56.66;99864.50;5092540;28;20379;-81
2021/03/29 01:14:25;;;;;;;46.08;18.80;;;;;;;4.24;56.21;99864.31;5092146;28;20148;-81
2021/03/29 01:16:58;;;;;;;41.50;17.98;;;;;;;4.24;55.82;99862.41;5089933;28;20024;-82
2021/03/29 01:19:51;;;;;;;36.72;16.15;;;;;;;4.25;56.75;99857.81;5091433;28;20062;-81
2021/03/29 01:22:19;;;;;;;41.35;17.80;;;;;;;4.25;56.31;99858.66;5090395;28;20105;-81
2021/03/29 01:24:55;;;;;;;37.40;16.63;;;;;;;4.28;56.18;99854.69;5091818;28;20464;-81
2021/03/29 01:27:25;;;;;;;43.03;18.23;;;;;;;4.28;56.45;99849.25;5092200;28;20387;-81
2021/03/29 01:29:52;;;;;;;31.08;15.02;;;;;;;4.28;56.31;99858.22;5089523;28;20023;-81
2021/03/29 01:32:19;;;;;;;40.90;18.33;;;;;;;4.26;56.49;99849.44;5091796;28;20472;-82
2021/03/29 01:34:46;;;;;;;37.20;16.33;;;;;;;4.24;56.14;99850.72;5091668;28;20076;-81
2021/03/29 01:37:12;;;;;;;33.15;15.88;;;;;;;4.20;56.67;99855.75;5092220;28;20767;-81
2021/03/29 01:39:41;;;;;;;32.33;15.30;;;;;;;4.20;56.43;99860.38;5091827;28;20020;-81
2021/03/29 01:42:08;;;;;;;40.63;18.10;;;;;;;4.19;55.94;99862.22;5091982;28;20031;-80
2021/03/29 01:44:34;;;;;;;44.83;18.75;;;;;;;4.18;56.05;99857.84;5092295;28;20376;-80
2021/03/29 01:47:00;;;;;;;42.97;18.23;;;;;;;4.19;56.55;99861.41;5091656;28;20045;-81
2021/03/29 01:49:26;;;;;;;38.50;17.35;;;;;;;4.19;56.35;99847.84;5090757;28;20479;-80
2021/03/29 01:51:53;;;;;;;36.17;17.52;;;;;;;4.22;56.83;99858.25;5091481;28;20783;-81
2021/03/29 01:54:19;;;;;;;37.85;16.83;;;;;;;4.23;56.11;99851.78;5091721;28;20514;-81
2021/03/29 01:56:45;;;;;;;36.45;16.48;;;;;;;4.26;56.56;99859.50;5091462;28;20024;-81
2021/03/29 01:59:11;;;;;;;33.92;15.68;;;;;;;4.30;56.68;99855.25;5091966;28;20031;-81
2021/03/29 02:01:36;;;;;;;32.83;15.25;;;;;;;4.35;56.23;99863.56;5091411;28;20032;-80
2021/03/29 02:04:06;;;;;;;31.50;14.38;;;;;;;4.39;56.04;99858.56;5091770;28;20039;-81
2021/03/29 02:06:32;;;;;;;28.73;14.65;;;;;;;4.42;56.80;99864.38;5089287;28;20042;-81
2021/03/29 02:08:59;;;;;;;34.47;15.55;;;;;;;4.45;56.41;99861.22;5092100;28;20439;-80
2021/03/29 02:11:25;;;;;;;33.05;15.27;;;;;;;4.50;55.93;99857.81;5091554;28;20031;-80
2021/03/29 02:13:53;;;;;;;29.60;15.00;;;;;;;4.53;55.95;99870.16;5091094;28;20028;-82
2021/03/29 02:16:19;;;;;;;30.30;14.43;;;;;;;4.54;56.76;99864.47;5091274;28;20035;-81
2021/03/29 02:18:50;;;;;;;34.03;14.77;;;;;;;4.57;55.77;99855.88;5090118;28;20050;-81
2021/03/29 02:21:25;;;;;;;29.48;13.55;;;;;;;4.61;56.51;99859.00;5091086;28;20023;-81
2021/03/29 02:23:55;;;;;;;31.10;15.18;;;;;;;4.61;56.19;99856.28;5088678;28;20061;-82
2021/03/29 02:26:21;;;;;;;33.38;15.70;;;;;;;4.62;56.29;99858.75;5090961;28;20127;-82
2021/03/29 02:28:48;;;;;;;33.28;15.75;;;;;;;4.63;56.24;99859.63;5091385;28;20095;-82
2021/03/29 02:31:14;;;;;;;42.88;22.88;;;;;;;4.64;56.28;99868.59;5089804;28;20028;-81
2021/03/29 02:33:41;;;;;;;43.70;21.63;;;;;;;4.66;56.19;99859.16;5090274;28;20055;-81
2021/03/29 02:36:08;;;;;;;34.55;15.98;;;;;;;4.65;56.70;99862.09;5093879;28;20024;-82
2021/03/29 02:38:34;;;;;;;64.28;29.20;;;;;;;4.62;56.49;99861.47;5095663;28;20085;-81
2021/03/29 02:41:00;;;;;;;32.30;16.25;;;;;;;4.62;56.60;99864.19;5097017;28;20081;-81
2021/03/29 02:43:27;;;;;;;46.03;22.00;;;;;;;4.61;56.45;99873.41;5096351;28;20038;-81
2021/03/29 02:45:56;;;;;;;41.58;21.20;;;;;;;4.61;56.92;99867.16;5098237;28;20091;-81
2021/03/29 02:48:25;;;;;;;30.83;14.23;;;;;;;4.60;56.85;99866.31;5099944;28;20023;-81
2021/03/29 02:50:53;;;;;;;48.20;24.65;;;;;;;4.61;56.24;99861.72;5097451;28;20076;-81
2021/03/29 02:53:25;;;;;;;39.55;19.75;;;;;;;4.61;56.47;99861.72;5098517;28;20086;-81
2021/03/29 02:55:52;;;;;;;26.35;14.50;;;;;;;4.61;57.15;99865.25;5096509;28;20103;-81
2021/03/29 02:58:22;;;;;;;28.83;15.35;;;;;;;4.60;57.15;99862.78;5099878;28;20024;-81
2021/03/29 03:00:48;;;;;;;28.80;14.57;;;;;;;4.61;56.80;99859.81;5101515;28;20050;-81
2021/03/29 03:03:13;;;;;;;39.88;19.27;;;;;;;4.59;57.33;99861.94;5103129;28;20040;-80
2021/03/29 03:05:40;;;;;;;34.30;16.67;;;;;;;4.59;57.00;99850.25;5101802;28;20020;-82
2021/03/29 03:08:07;;;;;;;28.55;14.50;;;;;;;4.61;57.17;99859.81;5096549;28;20081;-81
2021/03/29 03:10:35;;;;;;;34.50;17.05;;;;;;;4.62;57.23;99860.66;5095695;28;20035;-81
2021/03/29 03:13:06;;;;;;;29.73;15.40;;;;;;;4.64;57.54;99857.72;5099525;28;20115;-80
2021/03/29 03:15:33;;;;;;;27.42;13.88;;;;;;;4.63;57.13;99859.63;5094252;28;20020;-81
2021/03/29 03:18:01;;;;;;;36.22;17.63;;;;;;;4.64;56.82;99864.00;5094848;28;20372;-80
2021/03/29 03:20:28;;;;;;;26.10;13.60;;;;;;;4.64;57.79;99866.72;5094233;28;20480;-80
2021/03/29 03:22:57;;;;;;;26.77;15.23;;;;;;;4.63;56.82;99862.31;5094553;28;20498;-80
2021/03/29 03:25:26;;;;;;;25.95;14.25;;;;;;;4.62;57.20;99861.47;5093947;28;20059;-80
2021/03/29 03:27:52;;;;;;;26.92;14.32;;;;;;;4.58;57.64;99854.81;5092615;28;20054;-81
2021/03/29 03:30:30;;;;;;;30.02;14.75;;;;;;;4.57;57.56;99861.31;5093575;28;20387;-81
2021/03/29 03:32:56;;;;;;;29.08;13.68;;;;;;;4.55;58.48;99855.28;5091757;28;20107;-81
2021/03/29 03:35:24;;;;;;;25.58;12.57;;;;;;;4.55;58.18;99863.41;5094467;28;20032;-81
2021/03/29 03:38:00;;;;;;;24.25;13.32;;;;;;;4.54;58.15;99852.78;5094804;28;20077;-81
2021/03/29 03:40:27;;;;;;;25.48;13.10;;;;;;;4.49;58.22;99858.88;5094144;28;20035;-81
2021/03/29 03:42:58;;;;;;;27.27;13.88;;;;;;;4.49;58.26;99858.06;5095352;28;20028;-81
2021/03/29 03:45:28;;;;;;;25.85;12.70;;;;;;;4.45;58.39;99847.63;5095172;28;20535;-81
2021/03/29 03:47:54;;;;;;;23.30;12.77;;;;;;;4.44;59.57;99848.69;5095642;28;20055;-81
2021/03/29 03:50:20;;;;;;;26.10;13.50;;;;;;;4.44;59.09;99856.00;5094950;28;20028;-82
2021/03/29 03:52:46;;;;;;;28.38;13.48;;;;;;;4.42;59.49;99850.78;5094330;28;20392;-81
2021/03/29 03:55:14;;;;;;;23.08;11.63;;;;;;;4.40;59.32;99858.31;5095367;28;20537;-82
2021/03/29 03:57:40;;;;;;;26.15;13.70;;;;;;;4.39;59.68;99853.94;5094866;28;20024;-81
2021/03/29 04:00:10;;;;;;;27.73;13.90;;;;;;;4.37;59.71;99858.75;5095081;28;20023;-82
2021/03/29 04:02:35;;;;;;;25.17;15.13;;;;;;;4.37;60.19;99864.19;5094836;28;20040;-82
2021/03/29 04:05:03;;;;;;;23.65;13.02;;;;;;;4.37;60.53;99863.38;5095543;28;20077;-81
2021/03/29 04:07:29;;;;;;;29.88;13.85;;;;;;;4.38;60.25;99863.13;5095189;28;20032;-81
2021/03/29 04:10:01;;;;;;;26.50;12.73;;;;;;;4.39;60.24;99858.56;5095234;28;20027;-81
2021/03/29 04:12:28;;;;;;;30.88;12.88;;;;;;;4.38;60.73;99851.47;5094021;28;20027;-81
2021/03/29 04:14:53;;;;;;;24.33;12.55;;;;;;;4.37;60.87;99852.50;5095006;28;20468;-81
2021/03/29 04:17:19;;;;;;;28.27;13.10;;;;;;;4.37;60.19;99857.94;5094857;28;20104;-81
2021/03/29 04:19:44;;;;;;;26.52;12.57;;;;;;;4.37;60.82;99863.38;5094557;28;20024;-81
2021/03/29 04:22:10;;;;;;;23.20;12.70;;;;;;;4.37;61.30;99866.91;5094404;28;20035;-81
2021/03/29 04:24:35;;;;;;;25.17;13.00;;;;;;;4.37;61.23;99869.63;5094587;28;20111;-81
2021/03/29 04:27:00;;;;;;;22.02;11.55;;;;;;;4.38;61.14;99867.75;5094769;28;20103;-81
2021/03/29 04:29:26;;;;;;;27.85;14.00;;;;;;;4.37;61.19;99866.09;5094675;28;20028;-82
2021/03/29 04:31:53;;;;;;;26.05;12.68;;;;;;;4.36;61.36;99865.25;5093166;28;20105;-80
2021/03/29 04:34:18;;;;;;;21.40;12.00;;;;;;;4.38;61.14;99863.13;5093105;28;20039;-80
2021/03/29 04:36:44;;;;;;;24.58;12.73;;;;;;;4.39;61.24;99870.22;5094489;28;20476;-81
2021/03/29 04:39:09;;;;;;;24.77;12.23;;;;;;;4.40;61.26;99871.91;5094155;28;20384;-80
2021/03/29 04:41:35;;;;;;;25.42;12.57;;;;;;;4.42;60.71;99874.41;5093994;28;20031;-81
2021/03/29 04:44:00;;;;;;;27.52;12.98;;;;;;;4.44;60.53;99866.88;5094115;28;20167;-81
2021/03/29 04:46:25;;;;;;;26.65;13.23;;;;;;;4.45;60.44;99860.38;5093987;28;20353;-81
2021/03/29 04:48:51;;;;;;;28.05;14.35;;;;;;;4.49;60.93;99868.91;5093857;28;20020;-81
2021/03/29 04:51:16;;;;;;;36.42;16.63;;;;;;;4.52;61.11;99863.03;5094263;28;20031;-82
2021/03/29 04:53:42;;;;;;;31.20;17.13;;;;;;;4.57;60.77;99871.38;5094273;28;20121;-81
2021/03/29 04:56:07;;;;;;;33.35;17.45;;;;;;;4.60;60.75;99870.94;5093658;28;20020;-81
2021/03/29 04:58:32;;;;;;;38.20;19.33;;;;;;;4.65;60.51;99873.81;5092397;28;20020;-81
2021/03/29 05:00:58;;;;;;;33.33;19.05;;;;;;;4.69;60.71;99864.13;5093175;28;20073;-82
2021/03/29 05:03:23;;;;;;;37.10;18.60;;;;;;;4.76;60.47;99856.75;5093617;28;20130;-82
2021/03/29 05:05:49;;;;;;;34.75;17.23;;;;;;;4.86;60.39;99848.09;5093592;28;20016;-82
2021/03/29 05:08:14;;;;;;;36.40;17.30;;;;;;;4.95;60.45;99845.94;5093289;28;20384;-81
2021/03/29 05:10:41;;;;;;;32.58;17.23;;;;;;;5.05;59.95;99848.97;5093327;28;20068;-81
2021/03/29 05:13:07;;;;;;;30.38;17.42;;;;;;;5.09;60.20;99854.78;5092898;28;20031;-81
2021/03/29 05:15:32;;;;;;;34.80;18.15;;;;;;;5.10;59.82;99853.72;5092320;28;20073;-81
2021/03/29 05:17:58;;;;;;;33.45;18.10;;;;;;;5.15;60.10;99856.59;5092792;28;20024;-81
2021/03/29 05:20:23;;;;;;;34.72;17.75;;;;;;;5.22;59.41;99861.94;5093365;28;20028;-81
2021/03/29 05:22:49;;;;;;;30.08;17.95;;;;;;;5.31;60.01;99866.03;5093733;28;20028;-81
2021/03/29 05:25:14;;;;;;;30.73;16.98;;;;;;;5.43;59.25;99865.28;5093124;28;20467;-81
2021/03/29 05:27:40;;;;;;;29.75;16.40;;;;;;;5.52;59.56;99880.22;5093095;28;20024;-82
2021/03/29 05:30:06;;;;;;;33.30;17.17;;;;;;;5.61;59.75;99873.41;5093809;28;20034;-81
2021/03/29 05:32:32;;;;;;;31.85;17.08;;;;;;;5.71;58.69;99870.16;5093498;28;20484;-81
2021/03/29 05:35:00;;;;;;;30.38;16.52;;;;;;;5.69;58.35;99879.63;5093232;28;20036;-81
2021/03/29 05:37:26;;;;;;;33.28;18.60;;;;;;;5.67;58.85;99868.97;5093520;28;20074;-81
2021/03/29 05:39:54;;;;;;;35.55;18.20;;;;;;;5.73;58.70;99880.81;5092876;28;20095;-82
2021/03/29 05:42:21;;;;;;;51.38;30.27;;;;;;;5.74;58.03;99886.03;5093319;28;20464;-81
2021/03/29 05:44:47;;;;;;;49.08;29.58;;;;;;;5.73;58.48;99876.19;5092673;28;20032;-81
2021/03/29 05:47:15;;;;;;;36.28;23.38;;;;;;;5.71;57.77;99882.94;5093185;28;20383;-81
2021/03/29 05:49:41;;;;;;;35.83;20.65;;;;;;;5.71;58.14;99875.59;5093077;28;20034;-81
2021/03/29 05:52:06;;;;;;;38.60;19.52;;;;;;;5.75;58.23;99878.69;5093245;28;20024;-81
2021/03/29 05:54:32;;;;;;;37.08;18.20;;;;;;;5.75;57.81;99870.53;5092531;28;20032;-80
2021/03/29 05:56:58;;;;;;;27.80;13.45;;;;;;;5.81;57.77;99877.78;5093356;28;20039;-81
2021/03/29 05:59:34;;;;;;;35.50;16.75;;;;;;;5.82;57.85;99876.72;5093186;28;20027;-80
2021/03/29 06:01:59;;;;;;;32.80;16.15;;;;;;;5.86;57.59;99872.50;5091413;28;20400;-77
2021/03/29 06:04:44;;;;;;;32.97;15.55;;;;;;;5.89;57.83;99869.31;5092198;28;20040;-78
2021/03/29 06:07:14;;;;;;;38.78;19.10;;;;;;;5.93;57.86;99870.47;5092604;28;20030;-78
2021/03/29 06:09:40;;;;;;;37.42;15.45;;;;;;;5.96;57.75;99869.19;5093096;28;20020;-77
2021/03/29 06:12:06;;;;;;;37.78;16.65;;;;;;;6.00;57.54;99880.47;5092481;28;20124;-78
2021/03/29 06:14:34;;;;;;;41.50;18.42;;;;;;;6.03;57.53;99888.19;5092233;28;20031;-77
2021/03/29 06:17:08;;;;;;;54.38;21.77;;;;;;;6.06;57.07;99882.28;5093084;28;20020;-77
2021/03/29 06:19:53;;;;;;;63.22;22.60;;;;;;;6.10;57.19;99883.50;5092193;28;20040;-77
2021/03/29 06:22:24;;;;;;;56.88;19.02;;;;;;;6.14;56.39;99878.41;5091330;28;20471;-78
2021/03/29 06:25:00;;;;;;;60.38;20.52;;;;;;;6.18;56.61;99868.69;5090596;28;20024;-78
2021/03/29 06:27:31;;;;;;;55.38;18.33;;;;;;;6.24;56.17;99874.06;5090154;28;20102;-77
2021/03/29 06:30:12;;;;;;;55.30;20.15;;;;;;;6.32;56.56;99874.78;5092454;28;20038;-78
2021/03/29 06:32:39;;;;;;;40.08;15.80;;;;;;;6.39;56.41;99870.06;5091613;28;20028;-77
2021/03/29 06:35:16;;;;;;;53.72;19.70;;;;;;;6.47;56.04;99867.00;5090383;28;20429;-77
2021/03/29 06:37:41;;;;;;;32.25;12.95;;;;;;;6.60;55.88;99871.41;5091829;28;20024;-78
2021/03/29 06:40:09;;;;;;;34.75;13.57;;;;;;;6.66;55.73;99869.66;5091958;28;20103;-78
2021/03/29 06:42:34;;;;;;;36.33;15.00;;;;;;;6.73;55.22;99873.06;5092196;28;20032;-75
2021/03/29 06:45:14;;;;;;;40.13;15.95;;;;;;;6.81;55.08;99867.28;5092061;28;20479;-77
2021/03/29 06:47:40;;;;;;;58.20;20.33;;;;;;;6.92;55.21;99868.34;5092076;28;20028;-78
2021/03/29 06:50:06;;;;;;;46.10;16.75;;;;;;;7.02;55.11;99869.63;5092183;28;20078;-78
2021/03/29 06:52:34;;;;;;;30.05;11.43;;;;;;;7.08;54.61;99861.34;5091991;28;20107;-78
2021/03/29 06:55:26;;;;;;;32.88;12.48;;;;;;;7.14;54.62;99876.75;5091982;28;20032;-78
2021/03/29 06:57:59;;;;;;;41.03;16.65;;;;;;;7.24;54.45;99870.69;5091275;28;20024;-77
2021/03/29 07:00:39;;;;;;;38.80;15.02;;;;;;;7.35;53.68;99866.28;5089434;28;20028;-77
2021/03/29 07:03:09;;;;;;;54.03;20.13;;;;;;;7.43;53.88;99871.38;5088768;28;20491;-78
2021/03/29 07:05:35;;;;;;;53.28;18.85;;;;;;;7.56;54.01;99872.16;5091469;28;20421;-79
2021/03/29 07:08:03;;;;;;;37.15;14.32;;;;;;;7.64;53.04;99874.53;5091525;28;20452;-78
2021/03/29 07:10:29;;;;;;;38.50;14.63;;;;;;;7.69;53.33;99869.16;5091491;28;20035;-76
2021/03/29 07:12:55;;;;;;;40.47;16.83;;;;;;;7.73;52.89;99870.34;5091848;28;20024;-77
2021/03/29 07:15:21;;;;;;;41.33;15.88;;;;;;;7.78;52.75;99874.25;5092734;28;20024;-79
2021/03/29 07:17:49;;;;;;;28.90;13.10;;;;;;;7.83;53.27;99875.16;5092345;28;20028;-78
2021/03/29 07:20:22;;;;;;;34.28;15.25;;;;;;;7.88;52.35;99869.00;5091114;28;20020;-76
2021/03/29 07:22:48;;;;;;;41.65;17.23;;;;;;;7.93;51.57;99869.09;5090570;28;20038;-75
2021/03/29 07:25:15;;;;;;;45.10;18.42;;;;;;;7.99;52.00;99870.81;5090881;28;20012;-75
2021/03/29 07:27:47;;;;;;;41.33;16.75;;;;;;;8.07;51.73;99879.72;5090946;28;20024;-76
2021/03/29 07:30:15;;;;;;;31.73;13.60;;;;;;;8.15;51.88;99876.59;5091186;28;20036;-78
2021/03/29 07:32:42;;;;;;;31.20;13.48;;;;;;;8.23;51.52;99872.63;5090837;28;20020;-79
2021/03/29 07:35:08;;;;;;;34.08;14.52;;;;;;;8.35;51.36;99874.22;5090791;28;20036;-78
2021/03/29 07:37:41;;;;;;;41.50;16.98;;;;;;;8.52;51.33;99878.09;5092045;28;20107;-77
2021/03/29 07:40:15;;;;;;;42.78;19.27;;;;;;;8.67;50.85;99878.31;5090337;28;20428;-77
2021/03/29 07:42:42;;;;;;;31.90;16.65;;;;;;;8.76;49.88;99881.50;5091504;28;20124;-78
2021/03/29 07:45:14;;;;;;;39.03;18.95;;;;;;;8.88;50.39;99878.66;5091377;28;20024;-77
2021/03/29 07:47:54;;;;;;;31.27;13.55;;;;;;;8.99;50.17;99877.72;5093705;28;20051;-79
2021/03/29 07:50:26;;;;;;;32.97;15.52;;;;;;;9.09;49.67;99877.88;5094054;28;20024;-78
2021/03/29 07:52:55;;;;;;;25.58;11.00;;;;;;;9.18;48.97;99885.66;5094271;28;20032;-80
2021/03/29 07:55:44;;;;;;;24.17;10.65;;;;;;;9.22;47.96;99890.38;5095623;28;20659;-79
2021/03/29 07:58:14;;;;;;;24.38;11.50;;;;;;;9.22;48.18;99890.38;5094981;28;20020;-81
2021/03/29 08:00:42;;;;;;;23.98;10.85;;;;;;;9.24;47.79;99901.91;5094895;28;20026;-82
2021/03/29 08:03:10;;;;;;;24.88;10.30;;;;;;;9.28;47.90;99895.94;5094588;28;20047;-77
2021/03/29 08:05:40;;;;;;;21.58;10.80;;;;;;;9.29;47.71;99901.16;5095182;28;20116;-78
2021/03/29 08:08:23;;;;;;;21.95;9.95;;;;;;;9.29;47.39;99898.44;5092505;28;20016;-79
2021/03/29 08:11:13;;;;;;;22.00;11.02;;;;;;;9.31;46.83;99896.25;5093065;28;20113;-77
2021/03/29 08:13:53;;;;;;;30.45;13.48;;;;;;;9.36;47.67;99903.72;5094180;28;20015;-76
2021/03/29 08:16:21;;;;;;;;;;;;;;;9.43;47.69;99896.16;5094878;28;20027;-76
2021/03/29 08:19:05;;;;;;;24.98;11.43;;;;;;;9.49;47.27;99892.41;5094344;28;19937;-76
2021/03/29 08:22:00;;;;;;;32.50;15.85;;;;;;;9.57;47.27;99899.34;5092646;28;20554;-78
2021/03/29 08:24:29;;;;;;;33.03;14.13;;;;;;;9.64;46.98;99896.41;5091792;28;20016;-77
2021/03/29 08:27:07;;;;;;;30.08;12.82;;;;;;;9.71;47.11;99888.81;5093993;28;20031;-75
2021/03/29 08:29:36;;;;;;;27.48;13.02;;;;;;;9.79;46.97;99885.63;5094811;28;20379;-75
2021/03/29 08:32:18;;;;;;;33.63;15.60;;;;;;;9.89;47.08;99895.88;5094334;28;20085;-76
2021/03/29 08:34:48;;;;;;;28.35;12.63;;;;;;;9.98;46.92;99893.53;5093193;28;20059;-76
2021/03/29 08:37:27;;;;;;;29.77;13.07;;;;;;;10.01;46.33;99890.25;5093683;28;20012;-77
2021/03/29 08:39:54;;;;;;;26.30;12.32;;;;;;;10.04;46.41;99889.75;5090560;28;20035;-76
2021/03/29 08:42:23;;;;;;;20.90;9.80;;;;;;;10.11;46.77;99892.31;5093260;28;20234;-76
2021/03/29 08:44:51;;;;;;;19.67;9.63;;;;;;;10.19;46.13;99889.06;5090452;28;20031;-76
2021/03/29 08:47:20;;;;;;;21.73;10.30;;;;;;;10.18;45.71;99887.44;5093427;28;20262;-76
2021/03/29 08:49:59;;;;;;;23.92;10.75;;;;;;;10.20;46.41;99890.72;5093164;28;20016;-76
2021/03/29 08:52:25;;;;;;;25.92;14.18;;;;;;;10.31;46.10;99888.09;5092105;28;20024;-76
2021/03/29 08:54:53;;;;;;;39.22;18.58;;;;;;;10.36;45.65;99897.22;5093767;28;20016;-76
2021/03/29 08:57:21;;;;;;;29.38;13.57;;;;;;;10.42;45.51;99893.44;5094416;28;20024;-76
2021/03/29 08:59:51;;;;;;;25.30;11.63;;;;;;;10.52;46.27;99897.38;5093257;28;20029;-76
2021/03/29 09:02:16;;;;;;;17.30;7.97;;;;;;;10.63;45.39;99899.13;5093582;28;20065;-76
2021/03/29 09:04:59;;;;;;;24.08;11.52;;;;;;;10.72;45.20;99897.56;5092170;28;20189;-76
2021/03/29 09:07:32;;;;;;;24.00;11.93;;;;;;;10.77;45.07;99895.97;5092643;28;20099;-82
2021/03/29 09:09:58;;;;;;;23.27;9.98;;;;;;;10.81;44.44;99886.94;5092547;28;20012;-74
2021/03/29 09:12:27;;;;;;;21.38;10.48;;;;;;;10.93;45.32;99885.91;5092461;28;20031;-75
2021/03/29 09:14:53;;;;;;;26.08;12.40;;;;;;;11.01;44.81;99885.41;5093142;28;20027;-75
2021/03/29 09:17:24;;;;;;;26.70;10.65;;;;;;;11.07;44.35;99878.88;5093194;28;20138;-75
2021/03/29 09:19:49;;;;;;;15.35;9.27;;;;;;;11.13;44.21;99880.56;5093331;28;20050;-75
2021/03/29 09:22:27;;;;;;;20.63;9.65;;;;;;;11.26;44.37;99884.75;5091971;28;20040;-75
2021/03/29 09:24:52;;;;;;;25.33;10.38;;;;;;;11.36;43.57;99872.16;5093474;28;20027;-75
2021/03/29 09:27:22;;;;;;;19.23;10.48;;;;;;;11.51;44.63;99882.41;5092062;28;20027;-75
2021/03/29 09:29:48;;;;;;;18.70;10.00;;;;;;;11.68;44.88;99876.69;5093420;28;20032;-75
2021/03/29 09:32:16;;;;;;;19.80;9.02;;;;;;;11.84;44.23;99883.09;5092982;28;20059;-75
2021/03/29 09:34:47;;;;;;;19.88;9.52;;;;;;;11.97;43.52;99892.78;5093060;28;20039;-75
2021/03/29 09:37:27;;;;;;;18.02;8.40;;;;;;;12.13;44.08;99893.66;5093018;28;20039;-76
2021/03/29 09:40:17;;;;;;;19.10;9.20;;;;;;;12.17;43.52;99897.53;5091149;28;20069;-75
2021/03/29 09:42:47;;;;;;;20.55;9.02;;;;;;;12.19;42.41;99901.66;5092934;28;20032;-76
2021/03/29 09:45:21;;;;;;;20.63;9.63;;;;;;;12.17;42.72;99903.84;5091604;28;20028;-76
2021/03/29 09:48:05;;;;;;;21.42;9.15;;;;;;;12.18;43.09;99905.50;5093218;28;20047;-75
2021/03/29 09:50:36;;;;;;;19.30;9.48;;;;;;;12.27;42.48;99904.97;5093100;28;20027;-75
2021/03/29 09:53:07;;;;;;;20.55;10.05;;;;;;;12.32;43.34;99899.47;5092905;28;20088;-75
2021/03/29 09:55:45;;;;;;;21.75;10.30;;;;;;;12.40;42.74;99898.94;5092870;28;20828;-76
2021/03/29 09:58:27;;;;;;;23.92;10.82;;;;;;;12.55;43.15;99903.63;5092932;28;20173;-77
2021/03/29 10:00:56;;;;;;;24.67;12.15;;;;;;;12.62;42.46;99901.44;5092941;28;20028;-76
2021/03/29 10:03:23;;;;;;;23.25;11.77;;;;;;;12.71;42.53;99907.22;5092910;28;20048;-75
2021/03/29 10:05:50;;;;;;;26.77;11.02;;;;;;;12.83;42.71;99904.19;5092761;28;20093;-75
2021/03/29 10:08:30;;;;;;;19.92;10.27;;;;;;;12.95;43.20;99901.16;5092733;28;20031;-76
2021/03/29 10:10:58;;;;;;;19.75;10.23;;;;;;;13.08;42.23;99899.75;5092119;28;20028;-76
2021/03/29 10:13:31;;;;;;;20.85;9.18;;;;;;;13.16;42.83;99890.13;5092454;28;20035;-76
2021/03/29 10:15:58;;;;;;;19.58;9.75;;;;;;;13.21;42.27;99890.94;5092499;28;20027;-76
2021/03/29 10:18:30;;;;;;;17.88;8.40;;;;;;;13.30;41.68;99890.38;5092318;28;20039;-76
2021/03/29 10:21:03;;;;;;;21.50;8.65;;;;;;;13.37;42.01;99891.72;5092466;28;20032;-76
2021/03/29 10:23:31;;;;;;;16.23;8.10;;;;;;;13.42;41.37;99890.09;5092431;28;20685;-77
2021/03/29 10:26:40;;;;;;;20.42;9.13;;;;;;;13.30;40.83;99882.09;5092420;28;20034;-77
2021/03/29 10:29:07;;;;;;;26.13;12.32;;;;;;;13.23;41.32;99888.72;5092324;28;20016;-77
2021/03/29 10:31:36;;;;;;;17.23;8.77;;;;;;;13.27;40.99;99879.91;5092438;28;20107;-77
2021/03/29 10:34:02;;;;;;;17.55;9.70;;;;;;;13.38;41.72;99874.06;5092708;28;20102;-77
2021/03/29 10:36:29;;;;;;;20.65;9.60;;;;;;;13.56;42.16;99877.38;5092653;28;20069;-77
2021/03/29 10:38:56;;;;;;;17.63;8.77;;;;;;;13.67;41.26;99873.44;5092567;28;20020;-78
2021/03/29 10:41:22;;;;;;;16.08;8.27;;;;;;;13.70;40.41;99881.16;5092429;28;20035;-78
2021/03/29 10:43:49;;;;;;;22.52;10.98;;;;;;;13.68;40.74;99880.59;5092394;28;20051;-77
2021/03/29 10:46:14;;;;;;;19.08;9.27;;;;;;;13.72;39.82;99872.63;5092020;28;20027;-76
2021/03/29 10:48:40;;;;;;;24.65;10.35;;;;;;;13.80;39.95;99880.31;5091002;28;20028;-77
2021/03/29 10:51:07;;;;;;;27.60;10.57;;;;;;;13.92;40.03;99874.44;5091695;28;20024;-76
2021/03/29 10:53:34;;;;;;;20.88;8.32;;;;;;;14.05;39.97;99869.44;5091906;28;20491;-76
2021/03/29 10:55:59;;;;;;;25.67;10.02;;;;;;;14.11;40.52;99874.63;5091898;28;20023;-76
2021/03/29 10:58:25;;;;;;;28.15;9.82;;;;;;;14.24;39.74;99869.59;5091562;28;20020;-76
2021/03/29 11:00:50;;;;;;;12.82;6.78;;;;;;;14.31;38.95;99872.00;5091685;28;20133;-76
2021/03/29 11:03:16;;;;;;;14.48;5.65;;;;;;;14.33;39.23;99867.03;5091528;28;20036;-76
2021/03/29 11:05:42;;;;;;;12.05;5.40;;;;;;;14.29;38.31;99869.53;5091681;28;20052;-77
2021/03/29 11:08:07;;;;;;;13.40;6.15;;;;;;;14.24;38.32;99867.63;5091658;28;20087;-77
2021/03/29 11:10:33;;;;;;;10.77;5.28;;;;;;;14.33;38.87;99859.56;5091606;28;20016;-76
2021/03/29 11:13:00;;;;;;;12.60;5.45;;;;;;;14.37;38.94;99860.63;5091881;28;20114;-75
2021/03/29 11:15:26;;;;;;;43.47;14.70;;;;;;;14.48;38.54;99866.91;5092264;28;20020;-76
2021/03/29 11:17:51;;;;;;;10.43;4.80;;;;;;;14.57;38.30;99861.59;5092146;28;20093;-76
2021/03/29 11:20:16;;;;;;;11.93;4.80;;;;;;;14.58;37.51;99852.22;5090792;28;20028;-76
2021/03/29 11:22:43;;;;;;;12.90;5.38;;;;;;;14.62;38.06;99858.81;5094277;28;20067;-76
2021/03/29 11:25:09;;;;;;;10.07;4.65;;;;;;;14.67;37.79;99857.94;5094606;28;20024;-76
2021/03/29 11:27:34;;;;;;;12.43;5.00;;;;;;;14.68;38.14;99859.56;5095946;28;20030;-76
2021/03/29 11:30:02;;;;;;;7.90;4.43;;;;;;;14.68;38.06;99859.56;5095927;28;20020;-76
2021/03/29 11:32:27;;;;;;;11.05;4.93;;;;;;;14.63;37.74;99856.84;5096001;28;20533;-76